KVDI/VDI METAR and TAF weather

Enter ICAO airport designator
Station Type Date Time Source
KVDI METAR 2021/09/23 18:15 UTC NOAA

KVDI 231815Z AUTO 32005G14KT 10SM CLR 25/13 A2997 RMK AO2


Station Type Date Time Source
KVDI Decoded METAR 2021/09/23 18:15 UTC NOAA

Vidalia, Vidalia Municipal Airport, GA, United States (KVDI) 32-11-33N 082-22-19W
Sep 23, 2021 - 02:15 PM EDT / 2021.09.23 1815 UTC
Wind: from the NW (320 degrees) at 6 MPH (5 KT) gusting to 16 MPH (14 KT):0
Visibility: 10 mile(s):0
Sky conditions: clear
Temperature: 77 F (25 C)
Dew Point: 55 F (13 C)
Relative Humidity: 47%
Pressure (altimeter): 29.97 in. Hg (1014 hPa)
ob: KVDI 231815Z AUTO 32005G14KT 10SM CLR 25/13 A2997 RMK AO2
cycle: 18

Station Type Date Time Source
KVDI TAF UTC NOAA

Error!

Example: see airport list